TAF LEDA
AMD LEDA 081951Z 0815/0915 CNL=
METAR LEDA
LEDA 082130Z AUTO 26017KT 230V290 CAVOK 04/01 Q1011=
LEDA 082100Z AUTO 26015KT 230V290 CAVOK 05/00 Q1011=
LEDA 082030Z AUTO 26015KT 230V300 CAVOK 05/00 Q1010=
LEDA 082000Z AUTO 27019KT 230V300 CAVOK 06/00 Q1010=
LEDA 081930Z AUTO 26018KT 230V300 CAVOK 06/M00 Q1009=
WC LEDA
WS LEDA
WV LEDA